sensor_id;sensor_type;location;lat;lon;timestamp;temperature;humidity
9193;DHT22;4631;49.296;10.560;2024-01-30T00:01:57;0.30;99.90
9193;DHT22;4631;49.296;10.560;2024-01-30T00:04:24;0.30;99.90
9193;DHT22;4631;49.296;10.560;2024-01-30T00:06:51;0.30;99.90
9193;DHT22;4631;49.296;10.560;2024-01-30T00:09:18;0.30;99.90
9193;DHT22;4631;49.296;10.560;2024-01-30T00:11:46;0.10;99.90
9193;DHT22;4631;49.296;10.560;2024-01-30T00:14:13;0.10;99.90
9193;DHT22;4631;49.296;10.560;2024-01-30T00:16:39;0.10;99.90
9193;DHT22;4631;49.296;10.560;2024-01-30T00:19:06;0.10;99.90
9193;DHT22;4631;49.296;10.560;2024-01-30T00:21:33;0.00;99.90
9193;DHT22;4631;49.296;10.560;2024-01-30T00:24:00;0.00;99.90
9193;DHT22;4631;49.296;10.560;2024-01-30T00:26:26;0.00;99.90
9193;DHT22;4631;49.296;10.560;2024-01-30T00:28:54;0.00;99.90
9193;DHT22;4631;49.296;10.560;2024-01-30T00:31:21;0.00;99.90
9193;DHT22;4631;49.296;10.560;2024-01-30T00:33:48;0.00;99.90
9193;DHT22;4631;49.296;10.560;2024-01-30T00:36:14;-0.10;99.90
9193;DHT22;4631;49.296;10.560;2024-01-30T00:38:41;0.00;99.90
9193;DHT22;4631;49.296;10.560;2024-01-30T00:41:08;-0.10;99.90
9193;DHT22;4631;49.296;10.560;2024-01-30T00:43:34;-0.10;99.90
9193;DHT22;4631;49.296;10.560;2024-01-30T00:46:02;-0.10;99.90
9193;DHT22;4631;49.296;10.560;2024-01-30T00:48:29;-0.10;99.90
9193;DHT22;4631;49.296;10.560;2024-01-30T00:50:56;-0.10;99.90
9193;DHT22;4631;49.296;10.560;2024-01-30T00:53:22;-0.10;99.90
9193;DHT22;4631;49.296;10.560;2024-01-30T00:55:49;-0.10;99.90
9193;DHT22;4631;49.296;10.560;2024-01-30T00:58:16;-0.10;99.90
9193;DHT22;4631;49.296;10.560;2024-01-30T01:00:44;-0.10;99.90
9193;DHT22;4631;49.296;10.560;2024-01-30T01:03:12;-0.10;99.90
9193;DHT22;4631;49.296;10.560;2024-01-30T01:05:39;0.10;99.90
9193;DHT22;4631;49.296;10.560;2024-01-30T01:08:06;-0.20;99.90
9193;DHT22;4631;49.296;10.560;2024-01-30T01:10:33;-0.20;99.90
9193;DHT22;4631;49.296;10.560;2024-01-30T01:12:59;-0.20;99.90
9193;DHT22;4631;49.296;10.560;2024-01-30T01:15:26;-0.20;99.90
9193;DHT22;4631;49.296;10.560;2024-01-30T01:17:52;-0.20;99.90
9193;DHT22;4631;49.296;10.560;2024-01-30T01:20:20;-0.20;99.90
9193;DHT22;4631;49.296;10.560;2024-01-30T01:22:47;-0.20;99.90
9193;DHT22;4631;49.296;10.560;2024-01-30T01:25:14;-0.20;99.90
9193;DHT22;4631;49.296;10.560;2024-01-30T01:27:40;-0.30;99.90
9193;DHT22;4631;49.296;10.560;2024-01-30T01:30:08;-0.30;99.90
9193;DHT22;4631;49.296;10.560;2024-01-30T01:32:35;-0.30;99.90
9193;DHT22;4631;49.296;10.560;2024-01-30T01:35:03;-0.30;99.90
9193;DHT22;4631;49.296;10.560;2024-01-30T01:37:32;-0.30;99.90
9193;DHT22;4631;49.296;10.560;2024-01-30T01:39:59;-0.30;99.90
9193;DHT22;4631;49.296;10.560;2024-01-30T01:42:26;-0.30;99.90
9193;DHT22;4631;49.296;10.560;2024-01-30T01:44:52;-0.40;99.90
9193;DHT22;4631;49.296;10.560;2024-01-30T01:47:19;-0.40;99.90
9193;DHT22;4631;49.296;10.560;2024-01-30T01:49:46;-0.40;99.90
9193;DHT22;4631;49.296;10.560;2024-01-30T01:52:13;-0.40;99.90
9193;DHT22;4631;49.296;10.560;2024-01-30T01:54:41;-0.40;99.90
9193;DHT22;4631;49.296;10.560;2024-01-30T01:57:07;-0.50;99.90
9193;DHT22;4631;49.296;10.560;2024-01-30T01:59:34;-0.50;99.90
9193;DHT22;4631;49.296;10.560;2024-01-30T02:02:01;-0.50;99.90
9193;DHT22;4631;49.296;10.560;2024-01-30T02:04:28;-0.50;99.90
9193;DHT22;4631;49.296;10.560;2024-01-30T02:06:55;-0.50;99.90
9193;DHT22;4631;49.296;10.560;2024-01-30T02:09:22;-0.50;99.90
9193;DHT22;4631;49.296;10.560;2024-01-30T02:11:50;-0.50;99.90
9193;DHT22;4631;49.296;10.560;2024-01-30T02:14:16;-0.50;99.90
9193;DHT22;4631;49.296;10.560;2024-01-30T02:16:43;-0.50;99.90
9193;DHT22;4631;49.296;10.560;2024-01-30T02:19:10;-0.50;99.90
9193;DHT22;4631;49.296;10.560;2024-01-30T02:21:38;-0.60;99.90
9193;DHT22;4631;49.296;10.560;2024-01-30T02:24:05;-0.60;99.90
9193;DHT22;4631;49.296;10.560;2024-01-30T02:26:32;-0.60;99.90
9193;DHT22;4631;49.296;10.560;2024-01-30T02:28:58;-0.60;99.90
9193;DHT22;4631;49.296;10.560;2024-01-30T02:31:25;-0.60;99.90
9193;DHT22;4631;49.296;10.560;2024-01-30T02:33:51;-0.60;99.90
9193;DHT22;4631;49.296;10.560;2024-01-30T02:36:18;-0.60;99.90
9193;DHT22;4631;49.296;10.560;2024-01-30T02:38:46;-0.60;99.90
9193;DHT22;4631;49.296;10.560;2024-01-30T02:41:13;-0.60;99.90
9193;DHT22;4631;49.296;10.560;2024-01-30T02:43:39;-0.60;99.90
9193;DHT22;4631;49.296;10.560;2024-01-30T02:46:06;-0.60;99.90
9193;DHT22;4631;49.296;10.560;2024-01-30T02:48:33;-0.60;99.90
9193;DHT22;4631;49.296;10.560;2024-01-30T02:50:59;-0.60;99.90
9193;DHT22;4631;49.296;10.560;2024-01-30T02:53:26;-0.60;99.90
9193;DHT22;4631;49.296;10.560;2024-01-30T02:55:54;-0.60;99.90
9193;DHT22;4631;49.296;10.560;2024-01-30T02:58:21;-0.60;99.90
9193;DHT22;4631;49.296;10.560;2024-01-30T03:00:47;-0.60;99.90
9193;DHT22;4631;49.296;10.560;2024-01-30T03:03:14;-0.60;99.90
9193;DHT22;4631;49.296;10.560;2024-01-30T03:05:40;-0.70;99.90
9193;DHT22;4631;49.296;10.560;2024-01-30T03:08:07;-0.70;99.90
9193;DHT22;4631;49.296;10.560;2024-01-30T03:10:34;-0.70;99.90
9193;DHT22;4631;49.296;10.560;2024-01-30T03:13:02;-0.60;99.90
9193;DHT22;4631;49.296;10.560;2024-01-30T03:15:28;-0.70;99.90
9193;DHT22;4631;49.296;10.560;2024-01-30T03:17:55;-0.70;99.90
9193;DHT22;4631;49.296;10.560;2024-01-30T03:20:21;-0.70;99.90
9193;DHT22;4631;49.296;10.560;2024-01-30T03:22:48;-0.70;99.90
9193;DHT22;4631;49.296;10.560;2024-01-30T03:25:15;-0.80;99.90
9193;DHT22;4631;49.296;10.560;2024-01-30T03:27:41;-0.80;99.90
9193;DHT22;4631;49.296;10.560;2024-01-30T03:30:10;-0.70;99.90
9193;DHT22;4631;49.296;10.560;2024-01-30T03:32:36;-0.70;99.90
9193;DHT22;4631;49.296;10.560;2024-01-30T03:35:03;-0.70;99.90
9193;DHT22;4631;49.296;10.560;2024-01-30T03:37:30;-0.60;99.90
9193;DHT22;4631;49.296;10.560;2024-01-30T03:39:56;-0.70;99.90
9193;DHT22;4631;49.296;10.560;2024-01-30T03:42:23;-0.70;99.90
9193;DHT22;4631;49.296;10.560;2024-01-30T03:44:50;-0.70;99.90
9193;DHT22;4631;49.296;10.560;2024-01-30T03:47:20;-0.70;99.90
9193;DHT22;4631;49.296;10.560;2024-01-30T03:49:47;-0.70;99.90
9193;DHT22;4631;49.296;10.560;2024-01-30T03:52:13;-0.70;99.90
9193;DHT22;4631;49.296;10.560;2024-01-30T03:54:40;-0.70;99.90
9193;DHT22;4631;49.296;10.560;2024-01-30T03:57:06;-0.70;99.90
9193;DHT22;4631;49.296;10.560;2024-01-30T03:59:33;-0.70;99.90
9193;DHT22;4631;49.296;10.560;2024-01-30T04:02:00;-0.70;99.90
9193;DHT22;4631;49.296;10.560;2024-01-30T04:04:28;-0.70;99.90
9193;DHT22;4631;49.296;10.560;2024-01-30T04:06:54;-0.70;99.90
9193;DHT22;4631;49.296;10.560;2024-01-30T04:09:21;-0.70;99.90
9193;DHT22;4631;49.296;10.560;2024-01-30T04:11:48;-0.70;99.90
9193;DHT22;4631;49.296;10.560;2024-01-30T04:14:14;-0.70;99.90
9193;DHT22;4631;49.296;10.560;2024-01-30T04:16:41;-0.70;99.90
9193;DHT22;4631;49.296;10.560;2024-01-30T04:19:08;-0.70;99.90
9193;DHT22;4631;49.296;10.560;2024-01-30T04:21:36;-0.70;99.90
9193;DHT22;4631;49.296;10.560;2024-01-30T04:24:02;-0.70;99.90
9193;DHT22;4631;49.296;10.560;2024-01-30T04:26:29;-0.70;99.90
9193;DHT22;4631;49.296;10.560;2024-01-30T04:28:56;-0.70;99.90
9193;DHT22;4631;49.296;10.560;2024-01-30T04:31:22;-0.70;99.90
9193;DHT22;4631;49.296;10.560;2024-01-30T04:33:49;-0.70;99.90
9193;DHT22;4631;49.296;10.560;2024-01-30T04:36:16;-0.70;99.90
9193;DHT22;4631;49.296;10.560;2024-01-30T04:38:44;-0.70;99.90
9193;DHT22;4631;49.296;10.560;2024-01-30T04:41:10;-0.70;99.90
9193;DHT22;4631;49.296;10.560;2024-01-30T04:43:37;-0.70;99.90
9193;DHT22;4631;49.296;10.560;2024-01-30T04:46:03;-0.70;99.90
9193;DHT22;4631;49.296;10.560;2024-01-30T04:48:30;-0.70;99.90
9193;DHT22;4631;49.296;10.560;2024-01-30T04:50:57;-0.70;99.90
9193;DHT22;4631;49.296;10.560;2024-01-30T04:53:26;-0.70;99.90
9193;DHT22;4631;49.296;10.560;2024-01-30T04:55:54;-0.70;99.90
9193;DHT22;4631;49.296;10.560;2024-01-30T04:58:21;-0.70;99.90
9193;DHT22;4631;49.296;10.560;2024-01-30T05:00:48;-0.70;99.90
9193;DHT22;4631;49.296;10.560;2024-01-30T05:03:17;-0.70;99.90
9193;DHT22;4631;49.296;10.560;2024-01-30T05:05:43;-0.70;99.90
9193;DHT22;4631;49.296;10.560;2024-01-30T05:08:10;-0.70;99.90
9193;DHT22;4631;49.296;10.560;2024-01-30T05:10:36;-0.70;99.90
9193;DHT22;4631;49.296;10.560;2024-01-30T05:13:04;-0.70;99.90
9193;DHT22;4631;49.296;10.560;2024-01-30T05:15:31;-0.80;99.90
9193;DHT22;4631;49.296;10.560;2024-01-30T05:17:58;-0.80;99.90
9193;DHT22;4631;49.296;10.560;2024-01-30T05:20:24;-0.70;99.90
9193;DHT22;4631;49.296;10.560;2024-01-30T05:22:53;-0.70;99.90
9193;DHT22;4631;49.296;10.560;2024-01-30T05:25:19;-0.70;99.90
9193;DHT22;4631;49.296;10.560;2024-01-30T05:27:46;-0.80;99.90
9193;DHT22;4631;49.296;10.560;2024-01-30T05:30:14;-0.80;99.90
9193;DHT22;4631;49.296;10.560;2024-01-30T05:32:41;-0.80;99.90
9193;DHT22;4631;49.296;10.560;2024-01-30T05:35:07;-0.80;99.90
9193;DHT22;4631;49.296;10.560;2024-01-30T05:37:33;-0.80;99.90
9193;DHT22;4631;49.296;10.560;2024-01-30T05:40:00;-0.70;99.90
9193;DHT22;4631;49.296;10.560;2024-01-30T05:42:26;-0.70;99.90
9193;DHT22;4631;49.296;10.560;2024-01-30T05:44:53;-0.70;99.90
9193;DHT22;4631;49.296;10.560;2024-01-30T05:47:21;-0.70;99.90
9193;DHT22;4631;49.296;10.560;2024-01-30T05:49:48;-0.70;99.90
9193;DHT22;4631;49.296;10.560;2024-01-30T05:52:15;-0.70;99.90
9193;DHT22;4631;49.296;10.560;2024-01-30T05:54:41;-0.70;99.90
9193;DHT22;4631;49.296;10.560;2024-01-30T05:57:07;-0.70;99.90
9193;DHT22;4631;49.296;10.560;2024-01-30T05:59:34;-0.70;99.90
9193;DHT22;4631;49.296;10.560;2024-01-30T06:02:01;-0.60;99.90
9193;DHT22;4631;49.296;10.560;2024-01-30T06:04:29;-0.60;99.90
9193;DHT22;4631;49.296;10.560;2024-01-30T06:06:56;-0.70;99.90
9193;DHT22;4631;49.296;10.560;2024-01-30T06:09:22;-0.60;99.90
9193;DHT22;4631;49.296;10.560;2024-01-30T06:11:49;-0.60;99.90
9193;DHT22;4631;49.296;10.560;2024-01-30T06:14:16;-0.60;99.90
9193;DHT22;4631;49.296;10.560;2024-01-30T06:16:42;-0.60;99.90
9193;DHT22;4631;49.296;10.560;2024-01-30T06:19:09;-0.50;99.90
9193;DHT22;4631;49.296;10.560;2024-01-30T06:21:37;-0.50;99.90
9193;DHT22;4631;49.296;10.560;2024-01-30T06:24:04;-0.50;99.90
9193;DHT22;4631;49.296;10.560;2024-01-30T06:26:30;-0.50;99.90
9193;DHT22;4631;49.296;10.560;2024-01-30T06:28:57;-0.50;99.90
9193;DHT22;4631;49.296;10.560;2024-01-30T06:31:23;-0.50;99.90
9193;DHT22;4631;49.296;10.560;2024-01-30T06:33:50;-0.40;99.90
9193;DHT22;4631;49.296;10.560;2024-01-30T06:36:17;-0.40;99.90
9193;DHT22;4631;49.296;10.560;2024-01-30T06:38:45;-0.40;99.90
9193;DHT22;4631;49.296;10.560;2024-01-30T06:41:11;-0.40;99.90
9193;DHT22;4631;49.296;10.560;2024-01-30T06:43:38;-0.40;99.90
9193;DHT22;4631;49.296;10.560;2024-01-30T06:46:04;-0.40;99.90
9193;DHT22;4631;49.296;10.560;2024-01-30T06:48:30;-0.40;99.90
9193;DHT22;4631;49.296;10.560;2024-01-30T06:50:57;-0.30;99.90
9193;DHT22;4631;49.296;10.560;2024-01-30T06:53:24;-0.30;99.90
9193;DHT22;4631;49.296;10.560;2024-01-30T06:55:53;-0.30;99.90
9193;DHT22;4631;49.296;10.560;2024-01-30T06:58:19;-0.30;99.90
9193;DHT22;4631;49.296;10.560;2024-01-30T07:00:46;-0.30;99.90
9193;DHT22;4631;49.296;10.560;2024-01-30T07:03:12;-0.30;99.90
9193;DHT22;4631;49.296;10.560;2024-01-30T07:05:39;-0.30;99.90
9193;DHT22;4631;49.296;10.560;2024-01-30T07:08:06;-0.30;99.90
9193;DHT22;4631;49.296;10.560;2024-01-30T07:10:33;-0.20;99.90
9193;DHT22;4631;49.296;10.560;2024-01-30T07:13:01;-0.20;99.90
9193;DHT22;4631;49.296;10.560;2024-01-30T07:15:29;-0.20;99.90
9193;DHT22;4631;49.296;10.560;2024-01-30T07:17:56;-0.20;99.90
9193;DHT22;4631;49.296;10.560;2024-01-30T07:20:22;-0.20;99.90
9193;DHT22;4631;49.296;10.560;2024-01-30T07:22:49;-0.20;99.90
9193;DHT22;4631;49.296;10.560;2024-01-30T07:25:16;-0.10;99.90
9193;DHT22;4631;49.296;10.560;2024-01-30T07:27:43;-0.10;99.90
9193;DHT22;4631;49.296;10.560;2024-01-30T07:30:11;0.00;99.90
9193;DHT22;4631;49.296;10.560;2024-01-30T07:32:38;0.00;99.90
9193;DHT22;4631;49.296;10.560;2024-01-30T07:35:05;0.00;99.90
9193;DHT22;4631;49.296;10.560;2024-01-30T07:37:31;0.10;99.90
9193;DHT22;4631;49.296;10.560;2024-01-30T07:39:58;0.10;99.90
9193;DHT22;4631;49.296;10.560;2024-01-30T07:42:24;0.10;99.90
9193;DHT22;4631;49.296;10.560;2024-01-30T07:44:51;0.20;99.90
9193;DHT22;4631;49.296;10.560;2024-01-30T07:47:19;0.20;99.90
9193;DHT22;4631;49.296;10.560;2024-01-30T07:49:46;0.30;99.90
9193;DHT22;4631;49.296;10.560;2024-01-30T07:52:13;0.30;99.90
9193;DHT22;4631;49.296;10.560;2024-01-30T07:54:39;0.40;99.90
9193;DHT22;4631;49.296;10.560;2024-01-30T07:57:06;0.40;99.90
9193;DHT22;4631;49.296;10.560;2024-01-30T07:59:33;0.50;99.90
9193;DHT22;4631;49.296;10.560;2024-01-30T08:02:00;0.50;99.90
9193;DHT22;4631;49.296;10.560;2024-01-30T08:04:28;0.60;99.90
9193;DHT22;4631;49.296;10.560;2024-01-30T08:06:54;0.60;99.90
9193;DHT22;4631;49.296;10.560;2024-01-30T08:09:21;0.70;99.90
9193;DHT22;4631;49.296;10.560;2024-01-30T08:11:48;0.80;99.90
9193;DHT22;4631;49.296;10.560;2024-01-30T08:14:14;0.80;99.90
9193;DHT22;4631;49.296;10.560;2024-01-30T08:16:41;0.90;99.90
9193;DHT22;4631;49.296;10.560;2024-01-30T08:19:07;0.90;99.90
9193;DHT22;4631;49.296;10.560;2024-01-30T08:21:35;1.00;99.90
9193;DHT22;4631;49.296;10.560;2024-01-30T08:24:02;1.10;99.90
9193;DHT22;4631;49.296;10.560;2024-01-30T08:26:29;1.20;99.90
9193;DHT22;4631;49.296;10.560;2024-01-30T08:28:56;1.20;99.90
9193;DHT22;4631;49.296;10.560;2024-01-30T08:31:22;1.30;99.90
9193;DHT22;4631;49.296;10.560;2024-01-30T08:33:49;1.40;99.90
9193;DHT22;4631;49.296;10.560;2024-01-30T08:36:16;1.40;99.90
9193;DHT22;4631;49.296;10.560;2024-01-30T08:38:44;1.40;99.90
9193;DHT22;4631;49.296;10.560;2024-01-30T08:41:11;1.50;99.90
9193;DHT22;4631;49.296;10.560;2024-01-30T08:43:37;1.60;99.90
9193;DHT22;4631;49.296;10.560;2024-01-30T08:46:04;1.60;99.90
9193;DHT22;4631;49.296;10.560;2024-01-30T08:48:30;1.70;99.90
9193;DHT22;4631;49.296;10.560;2024-01-30T08:50:57;1.70;99.90
9193;DHT22;4631;49.296;10.560;2024-01-30T08:53:23;1.80;99.90
9193;DHT22;4631;49.296;10.560;2024-01-30T08:55:52;1.90;99.90
9193;DHT22;4631;49.296;10.560;2024-01-30T08:58:18;2.00;99.90
9193;DHT22;4631;49.296;10.560;2024-01-30T09:00:45;2.00;99.90
9193;DHT22;4631;49.296;10.560;2024-01-30T09:03:12;2.10;99.90
9193;DHT22;4631;49.296;10.560;2024-01-30T09:05:38;2.20;99.90
9193;DHT22;4631;49.296;10.560;2024-01-30T09:08:05;2.30;99.90
9193;DHT22;4631;49.296;10.560;2024-01-30T09:10:32;2.40;99.90
9193;DHT22;4631;49.296;10.560;2024-01-30T09:13:00;2.50;99.90
9193;DHT22;4631;49.296;10.560;2024-01-30T09:15:26;2.60;99.90
9193;DHT22;4631;49.296;10.560;2024-01-30T09:17:53;2.70;99.90
9193;DHT22;4631;49.296;10.560;2024-01-30T09:20:20;2.70;99.90
9193;DHT22;4631;49.296;10.560;2024-01-30T09:22:47;2.80;99.90
9193;DHT22;4631;49.296;10.560;2024-01-30T09:25:14;2.90;99.90
9193;DHT22;4631;49.296;10.560;2024-01-30T09:27:41;2.90;99.90
9193;DHT22;4631;49.296;10.560;2024-01-30T09:30:09;3.00;99.90
9193;DHT22;4631;49.296;10.560;2024-01-30T09:32:36;3.00;99.90
9193;DHT22;4631;49.296;10.560;2024-01-30T09:35:03;3.10;99.90
9193;DHT22;4631;49.296;10.560;2024-01-30T09:37:29;3.10;99.90
9193;DHT22;4631;49.296;10.560;2024-01-30T09:39:56;3.10;99.90
9193;DHT22;4631;49.296;10.560;2024-01-30T09:42:26;3.20;99.90
9193;DHT22;4631;49.296;10.560;2024-01-30T09:44:54;3.30;99.90
9193;DHT22;4631;49.296;10.560;2024-01-30T09:47:22;3.30;99.90
9193;DHT22;4631;49.296;10.560;2024-01-30T09:49:49;3.30;99.90
9193;DHT22;4631;49.296;10.560;2024-01-30T09:52:16;3.30;99.90
9193;DHT22;4631;49.296;10.560;2024-01-30T09:54:43;3.40;99.90
9193;DHT22;4631;49.296;10.560;2024-01-30T09:57:11;3.40;99.90
9193;DHT22;4631;49.296;10.560;2024-01-30T09:59:38;3.40;99.90
9193;DHT22;4631;49.296;10.560;2024-01-30T10:02:04;3.50;99.90
9193;DHT22;4631;49.296;10.560;2024-01-30T10:04:32;3.50;99.90
9193;DHT22;4631;49.296;10.560;2024-01-30T10:07:01;3.60;99.90
9193;DHT22;4631;49.296;10.560;2024-01-30T10:09:28;3.60;99.90
9193;DHT22;4631;49.296;10.560;2024-01-30T10:11:55;3.70;99.90
9193;DHT22;4631;49.296;10.560;2024-01-30T10:14:21;3.90;99.90
9193;DHT22;4631;49.296;10.560;2024-01-30T10:16:48;3.90;99.90
9193;DHT22;4631;49.296;10.560;2024-01-30T10:19:16;4.00;99.90
9193;DHT22;4631;49.296;10.560;2024-01-30T10:21:43;4.10;99.90
9193;DHT22;4631;49.296;10.560;2024-01-30T10:24:10;4.20;99.90
9193;DHT22;4631;49.296;10.560;2024-01-30T10:26:38;4.30;99.90
9193;DHT22;4631;49.296;10.560;2024-01-30T10:29:04;4.50;99.90
9193;DHT22;4631;49.296;10.560;2024-01-30T10:31:31;4.50;99.90
9193;DHT22;4631;49.296;10.560;2024-01-30T10:33:58;4.60;99.90
9193;DHT22;4631;49.296;10.560;2024-01-30T10:36:26;4.70;99.90
9193;DHT22;4631;49.296;10.560;2024-01-30T10:38:57;4.80;99.90
9193;DHT22;4631;49.296;10.560;2024-01-30T10:41:26;4.90;99.90
9193;DHT22;4631;49.296;10.560;2024-01-30T10:43:55;5.00;99.90
9193;DHT22;4631;49.296;10.560;2024-01-30T10:46:25;5.10;99.90
9193;DHT22;4631;49.296;10.560;2024-01-30T10:48:57;5.30;99.90
9193;DHT22;4631;49.296;10.560;2024-01-30T10:51:24;5.40;99.90
9193;DHT22;4631;49.296;10.560;2024-01-30T10:53:50;5.50;99.90
9193;DHT22;4631;49.296;10.560;2024-01-30T10:56:19;5.60;99.90
9193;DHT22;4631;49.296;10.560;2024-01-30T10:58:47;5.70;99.90
9193;DHT22;4631;49.296;10.560;2024-01-30T11:01:14;5.80;99.90
9193;DHT22;4631;49.296;10.560;2024-01-30T11:03:41;5.80;99.90
9193;DHT22;4631;49.296;10.560;2024-01-30T11:06:10;5.90;99.90
9193;DHT22;4631;49.296;10.560;2024-01-30T11:08:37;6.00;99.90
9193;DHT22;4631;49.296;10.560;2024-01-30T11:11:04;6.00;99.90
9193;DHT22;4631;49.296;10.560;2024-01-30T11:13:36;6.20;99.90
9193;DHT22;4631;49.296;10.560;2024-01-30T11:16:03;6.30;99.90
9193;DHT22;4631;49.296;10.560;2024-01-30T11:18:30;6.50;99.90
9193;DHT22;4631;49.296;10.560;2024-01-30T11:20:57;6.70;99.90
9193;DHT22;4631;49.296;10.560;2024-01-30T11:23:26;6.90;99.90
9193;DHT22;4631;49.296;10.560;2024-01-30T11:25:53;7.10;99.90
9193;DHT22;4631;49.296;10.560;2024-01-30T11:28:20;7.30;99.90
9193;DHT22;4631;49.296;10.560;2024-01-30T11:30:48;7.40;99.90
9193;DHT22;4631;49.296;10.560;2024-01-30T11:33:26;7.50;99.90
9193;DHT22;4631;49.296;10.560;2024-01-30T11:35:56;7.60;99.90
9193;DHT22;4631;49.296;10.560;2024-01-30T11:38:23;7.60;99.90
9193;DHT22;4631;49.296;10.560;2024-01-30T11:40:52;7.70;99.90
9193;DHT22;4631;49.296;10.560;2024-01-30T11:43:19;7.80;99.90
9193;DHT22;4631;49.296;10.560;2024-01-30T11:45:45;7.80;99.90
9193;DHT22;4631;49.296;10.560;2024-01-30T11:48:13;7.90;99.90
9193;DHT22;4631;49.296;10.560;2024-01-30T11:50:40;8.00;99.90
9193;DHT22;4631;49.296;10.560;2024-01-30T11:53:07;8.00;99.90
9193;DHT22;4631;49.296;10.560;2024-01-30T11:55:34;8.10;99.90
9193;DHT22;4631;49.296;10.560;2024-01-30T11:58:02;8.10;99.90
9193;DHT22;4631;49.296;10.560;2024-01-30T12:00:29;8.10;99.90
9193;DHT22;4631;49.296;10.560;2024-01-30T12:02:56;8.10;99.90
9193;DHT22;4631;49.296;10.560;2024-01-30T12:05:25;8.20;99.90
9193;DHT22;4631;49.296;10.560;2024-01-30T12:07:52;8.30;99.90
9193;DHT22;4631;49.296;10.560;2024-01-30T12:10:18;8.40;99.90
9193;DHT22;4631;49.296;10.560;2024-01-30T12:12:45;8.50;99.90
9193;DHT22;4631;49.296;10.560;2024-01-30T12:15:12;8.60;99.90
9193;DHT22;4631;49.296;10.560;2024-01-30T12:17:39;8.70;99.90
9193;DHT22;4631;49.296;10.560;2024-01-30T12:20:06;8.90;99.90
9193;DHT22;4631;49.296;10.560;2024-01-30T12:22:37;9.10;99.90
9193;DHT22;4631;49.296;10.560;2024-01-30T12:25:05;9.20;99.90
9193;DHT22;4631;49.296;10.560;2024-01-30T12:27:31;9.30;99.90
9193;DHT22;4631;49.296;10.560;2024-01-30T12:29:58;9.40;99.90
9193;DHT22;4631;49.296;10.560;2024-01-30T12:32:25;9.50;99.90
9193;DHT22;4631;49.296;10.560;2024-01-30T12:34:54;9.50;99.90
9193;DHT22;4631;49.296;10.560;2024-01-30T12:37:21;9.60;99.90
9193;DHT22;4631;49.296;10.560;2024-01-30T12:39:52;9.70;99.90
9193;DHT22;4631;49.296;10.560;2024-01-30T12:42:20;9.70;99.90
9193;DHT22;4631;49.296;10.560;2024-01-30T12:44:47;9.80;99.90
9193;DHT22;4631;49.296;10.560;2024-01-30T12:47:13;9.80;99.90
9193;DHT22;4631;49.296;10.560;2024-01-30T12:49:41;9.90;99.90
9193;DHT22;4631;49.296;10.560;2024-01-30T12:52:08;9.90;99.90
9193;DHT22;4631;49.296;10.560;2024-01-30T12:54:35;10.00;99.90
9193;DHT22;4631;49.296;10.560;2024-01-30T12:57:03;9.90;99.90
9193;DHT22;4631;49.296;10.560;2024-01-30T12:59:29;9.90;99.90
9193;DHT22;4631;49.296;10.560;2024-01-30T13:01:56;10.00;99.90
9193;DHT22;4631;49.296;10.560;2024-01-30T13:04:23;10.00;99.90
9193;DHT22;4631;49.296;10.560;2024-01-30T13:06:49;10.00;99.90
9193;DHT22;4631;49.296;10.560;2024-01-30T13:09:16;10.00;99.90
9193;DHT22;4631;49.296;10.560;2024-01-30T13:11:43;10.10;99.90
9193;DHT22;4631;49.296;10.560;2024-01-30T13:14:10;10.20;99.90
9193;DHT22;4631;49.296;10.560;2024-01-30T13:16:37;10.20;99.90
9193;DHT22;4631;49.296;10.560;2024-01-30T13:19:04;10.20;99.90
9193;DHT22;4631;49.296;10.560;2024-01-30T13:21:31;10.10;99.90
9193;DHT22;4631;49.296;10.560;2024-01-30T13:23:57;10.10;99.90
9193;DHT22;4631;49.296;10.560;2024-01-30T13:26:25;10.20;99.90
9193;DHT22;4631;49.296;10.560;2024-01-30T13:28:52;10.20;99.90
9193;DHT22;4631;49.296;10.560;2024-01-30T13:31:20;10.20;99.90
9193;DHT22;4631;49.296;10.560;2024-01-30T13:33:46;10.20;99.90
9193;DHT22;4631;49.296;10.560;2024-01-30T13:36:14;10.20;99.90
9193;DHT22;4631;49.296;10.560;2024-01-30T13:38:40;10.20;99.90
9193;DHT22;4631;49.296;10.560;2024-01-30T13:41:07;10.20;99.90
9193;DHT22;4631;49.296;10.560;2024-01-30T13:43:34;10.20;99.90
9193;DHT22;4631;49.296;10.560;2024-01-30T13:46:00;10.20;99.90
9193;DHT22;4631;49.296;10.560;2024-01-30T13:48:28;10.20;99.90
9193;DHT22;4631;49.296;10.560;2024-01-30T13:50:55;10.20;99.90
9193;DHT22;4631;49.296;10.560;2024-01-30T13:53:22;10.20;99.90
9193;DHT22;4631;49.296;10.560;2024-01-30T13:55:48;10.20;99.90
9193;DHT22;4631;49.296;10.560;2024-01-30T13:58:15;10.20;99.90
9193;DHT22;4631;49.296;10.560;2024-01-30T14:00:42;10.20;99.90
9193;DHT22;4631;49.296;10.560;2024-01-30T14:03:08;10.30;99.90
9193;DHT22;4631;49.296;10.560;2024-01-30T14:05:36;10.30;99.90
9193;DHT22;4631;49.296;10.560;2024-01-30T14:08:03;10.30;99.90
9193;DHT22;4631;49.296;10.560;2024-01-30T14:10:30;10.40;99.90
9193;DHT22;4631;49.296;10.560;2024-01-30T14:12:57;10.50;99.90
9193;DHT22;4631;49.296;10.560;2024-01-30T14:15:24;10.60;99.90
9193;DHT22;4631;49.296;10.560;2024-01-30T14:17:50;10.50;99.90
9193;DHT22;4631;49.296;10.560;2024-01-30T14:20:17;10.40;99.90
9193;DHT22;4631;49.296;10.560;2024-01-30T14:22:45;10.40;99.90
9193;DHT22;4631;49.296;10.560;2024-01-30T14:25:11;10.40;99.90
9193;DHT22;4631;49.296;10.560;2024-01-30T14:27:38;10.40;99.90
9193;DHT22;4631;49.296;10.560;2024-01-30T14:30:05;10.40;99.90
9193;DHT22;4631;49.296;10.560;2024-01-30T14:32:33;10.40;99.90
9193;DHT22;4631;49.296;10.560;2024-01-30T14:35:00;10.40;99.90
9193;DHT22;4631;49.296;10.560;2024-01-30T14:37:27;10.30;99.90
9193;DHT22;4631;49.296;10.560;2024-01-30T14:39:56;10.20;99.90
9193;DHT22;4631;49.296;10.560;2024-01-30T14:42:23;10.20;99.90
9193;DHT22;4631;49.296;10.560;2024-01-30T14:44:50;10.20;99.90
9193;DHT22;4631;49.296;10.560;2024-01-30T14:47:16;10.10;99.90
9193;DHT22;4631;49.296;10.560;2024-01-30T14:49:43;10.00;99.90
9193;DHT22;4631;49.296;10.560;2024-01-30T14:52:10;10.00;99.90
9193;DHT22;4631;49.296;10.560;2024-01-30T14:54:36;10.00;99.90
9193;DHT22;4631;49.296;10.560;2024-01-30T14:57:04;9.90;99.90
9193;DHT22;4631;49.296;10.560;2024-01-30T14:59:31;9.80;99.90
9193;DHT22;4631;49.296;10.560;2024-01-30T15:01:59;9.80;99.90
9193;DHT22;4631;49.296;10.560;2024-01-30T15:04:26;9.70;99.90
9193;DHT22;4631;49.296;10.560;2024-01-30T15:06:52;9.70;99.90
9193;DHT22;4631;49.296;10.560;2024-01-30T15:09:18;9.70;99.90
9193;DHT22;4631;49.296;10.560;2024-01-30T15:11:47;9.60;99.90
9193;DHT22;4631;49.296;10.560;2024-01-30T15:14:16;9.60;99.90
9193;DHT22;4631;49.296;10.560;2024-01-30T15:16:43;9.60;99.90
9193;DHT22;4631;49.296;10.560;2024-01-30T15:19:10;9.50;99.90
9193;DHT22;4631;49.296;10.560;2024-01-30T15:21:37;9.50;99.90
9193;DHT22;4631;49.296;10.560;2024-01-30T15:24:04;9.40;99.90
9193;DHT22;4631;49.296;10.560;2024-01-30T15:26:30;9.40;99.90
9193;DHT22;4631;49.296;10.560;2024-01-30T15:28:57;9.30;99.90
9193;DHT22;4631;49.296;10.560;2024-01-30T15:31:25;9.20;99.90
9193;DHT22;4631;49.296;10.560;2024-01-30T15:33:51;9.10;99.90
9193;DHT22;4631;49.296;10.560;2024-01-30T15:36:18;9.00;99.90
9193;DHT22;4631;49.296;10.560;2024-01-30T15:38:45;9.00;99.90
9193;DHT22;4631;49.296;10.560;2024-01-30T15:41:11;9.00;99.90
9193;DHT22;4631;49.296;10.560;2024-01-30T15:43:38;8.90;99.90
9193;DHT22;4631;49.296;10.560;2024-01-30T15:46:05;8.90;99.90
9193;DHT22;4631;49.296;10.560;2024-01-30T15:48:33;8.80;99.90
9193;DHT22;4631;49.296;10.560;2024-01-30T15:51:00;8.70;99.90